^^
Grace C. Lehan Memorial Weather Station Historical Data
Daily Summary for June 17, 2021 Units:  Both    English   Metric
Daily Weekly Monthly Yearly
  High: Low: Average:
Temperature: 79.6 °F /  26.4 °C 50 °F /  10 °C 65.4 °F /  18.6 °C
Dew Point: 54.1 °F /  12.3 °C 44.9 °F /  7.2 °C 49.6 °F /  9.8 °C
Humidity: 89% 30.1% 60%
Wind Speed: 2mph /  3.2km/h - 0.2mph /  0.3km/h
Wind Gust: 10mph /  16.1km/h - -
Wind- - SSW
Pressure: 30.27 in /  1024.9 hPa 30.19 in /  1022.2 hPa -
Precipitation: 0.00 in /  0 mm    
 
 
Tabular Data for June 17, 2021
Time Temperature Dew Point Pressure Wind Wind Speed Wind Gust Humidity Rainfall Rate (Hourly) solar
00:00 58.7 °F /  14.8 °C 48.2 °F /  9 °C 30.20in /  1022.6hPa Calm   1mph /  1.6km/h 68% 0.00in /  0mm 0 W/m2
00:09 58.7 °F /  14.8 °C 48.1 °F /  8.9 °C 30.20in /  1022.6hPa Calm     68% 0.00in /  0mm 0 W/m2
00:14 58.6 °F /  14.8 °C 48.1 °F /  8.9 °C 30.20in /  1022.6hPa Calm     68.1% 0.00in /  0mm 0 W/m2
00:19 58.5 °F /  14.7 °C 48.4 °F /  9.1 °C 30.20in /  1022.6hPa Calm     69% 0.00in /  0mm 0 W/m2
00:24 58.4 °F /  14.7 °C 48.3 °F /  9.1 °C 30.20in /  1022.6hPa Calm     69% 0.00in /  0mm 0 W/m2
00:29 58.3 °F /  14.6 °C 48.2 °F /  9 °C 30.20in /  1022.6hPa Calm     69% 0.00in /  0mm 0 W/m2
00:34 58.2 °F /  14.6 °C 48.1 °F /  8.9 °C 30.20in /  1022.6hPa Calm     69% 0.00in /  0mm 0 W/m2
00:39 58 °F /  14.4 °C 47.9 °F /  8.8 °C 30.20in /  1022.6hPa Calm     69% 0.00in /  0mm 0 W/m2
00:44 57.9 °F /  14.4 °C 48 °F /  8.9 °C 30.20in /  1022.6hPa Calm     69.5% 0.00in /  0mm 0 W/m2
00:49 57.8 °F /  14.3 °C 48.1 °F /  8.9 °C 30.20in /  1022.6hPa Calm     70% 0.00in /  0mm 0 W/m2
00:54 57.6 °F /  14.2 °C 48.1 °F /  8.9 °C 30.20in /  1022.6hPa Calm     70.4% 0.00in /  0mm 0 W/m2
00:59 57.5 °F /  14.2 °C 48.2 °F /  9 °C 30.20in /  1022.6hPa Calm     71% 0.00in /  0mm 0 W/m2
01:04 57.3 °F /  14.1 °C 48.2 °F /  9 °C 30.20in /  1022.6hPa Calm     71.6% 0.00in /  0mm 0 W/m2
01:09 57.3 °F /  14.1 °C 48.4 °F /  9.1 °C 30.20in /  1022.6hPa Calm     72.1% 0.00in /  0mm 0 W/m2
01:14 57.1 °F /  13.9 °C 48.6 °F /  9.2 °C 30.20in /  1022.6hPa Calm     73% 0.00in /  0mm 0 W/m2
01:19 56.9 °F /  13.8 °C 48.4 °F /  9.1 °C 30.20in /  1022.6hPa Calm     73.1% 0.00in /  0mm 0 W/m2
01:24 56.8 °F /  13.8 °C 48.6 °F /  9.2 °C 30.20in /  1022.6hPa Calm     74% 0.00in /  0mm 0 W/m2
01:29 56.7 °F /  13.7 °C 48.5 °F /  9.2 °C 30.20in /  1022.6hPa Calm     74% 0.00in /  0mm 0 W/m2
01:34 56.6 °F /  13.7 °C 48.7 °F /  9.3 °C 30.20in /  1022.6hPa Calm     74.8% 0.00in /  0mm 0 W/m2
01:39 56.5 °F /  13.6 °C 48.7 °F /  9.3 °C 30.20in /  1022.6hPa Calm     75% 0.00in /  0mm 0 W/m2
01:44 56.4 °F /  13.6 °C 48.8 °F /  9.3 °C 30.20in /  1022.6hPa Calm     75.7% 0.00in /  0mm 0 W/m2
01:49 56.2 °F /  13.4 °C 48.8 °F /  9.3 °C 30.20in /  1022.6hPa Calm     76% 0.00in /  0mm 0 W/m2
01:54 56.1 °F /  13.4 °C 48.6 °F /  9.2 °C 30.20in /  1022.6hPa Calm     76% 0.00in /  0mm 0 W/m2
01:59 56 °F /  13.3 °C 48.7 °F /  9.3 °C 30.20in /  1022.6hPa Calm     76.4% 0.00in /  0mm 0 W/m2
02:04 55.8 °F /  13.2 °C 48.7 °F /  9.3 °C 30.20in /  1022.6hPa Calm     77% 0.00in /  0mm 0 W/m2
02:09 55.7 °F /  13.2 °C 48.6 °F /  9.2 °C 30.20in /  1022.6hPa Calm     77% 0.00in /  0mm 0 W/m2
02:14 55.6 °F /  13.1 °C 48.5 °F /  9.2 °C 30.20in /  1022.6hPa Calm     77% 0.00in /  0mm 0 W/m2
02:19 55.4 °F /  13 °C 48.4 °F /  9.1 °C 30.21in /  1022.9hPa Calm     77% 0.00in /  0mm 0 W/m2
02:24 55.3 °F /  12.9 °C 48.5 °F /  9.2 °C 30.20in /  1022.6hPa Calm     77.8% 0.00in /  0mm 0 W/m2
02:29 55.1 °F /  12.8 °C 48.3 °F /  9.1 °C 30.20in /  1022.6hPa Calm     78% 0.00in /  0mm 0 W/m2
02:34 54.8 °F /  12.7 °C 48.4 °F /  9.1 °C 30.20in /  1022.6hPa Calm     78.9% 0.00in /  0mm 0 W/m2
02:39 54.6 °F /  12.6 °C 48.3 °F /  9.1 °C 30.20in /  1022.6hPa Calm     79% 0.00in /  0mm 0 W/m2
02:44 54.5 °F /  12.5 °C 48.1 °F /  8.9 °C 30.20in /  1022.6hPa Calm     79% 0.00in /  0mm 0 W/m2
02:49 54.4 °F /  12.4 °C 47.9 °F /  8.8 °C 30.20in /  1022.6hPa Calm     78.7% 0.00in /  0mm 0 W/m2
02:54 54.3 °F /  12.4 °C 47.8 °F /  8.8 °C 30.20in /  1022.6hPa West 0.1mph /  0.2km/h 1mph /  1.6km/h 78.6% 0.00in /  0mm 0 W/m2
02:59 54.2 °F /  12.3 °C 47.5 °F /  8.6 °C 30.20in /  1022.6hPa West 0.1mph /  0.2km/h 1mph /  1.6km/h 78% 0.00in /  0mm 0 W/m2
03:04 54.2 °F /  12.3 °C 47.5 °F /  8.6 °C 30.20in /  1022.6hPa West 0.1mph /  0.2km/h 1mph /  1.6km/h 78% 0.00in /  0mm 0 W/m2
03:09 54.2 °F /  12.3 °C 47.5 °F /  8.6 °C 30.20in /  1022.6hPa West 0.1mph /  0.2km/h 1mph /  1.6km/h 78% 0.00in /  0mm 0 W/m2
03:14 54.2 °F /  12.3 °C 47.5 °F /  8.6 °C 30.20in /  1022.6hPa Calm   1mph /  1.6km/h 78% 0.00in /  0mm 0 W/m2
03:19 54.3 °F /  12.4 °C 47.3 °F /  8.5 °C 30.20in /  1022.6hPa Calm   1mph /  1.6km/h 77.1% 0.00in /  0mm 0 W/m2
03:24 54.3 °F /  12.4 °C 47.3 °F /  8.5 °C 30.20in /  1022.6hPa Calm   1mph /  1.6km/h 77% 0.00in /  0mm 0 W/m2
03:29 54.3 °F /  12.4 °C 47.3 °F /  8.5 °C 30.20in /  1022.6hPa Calm   1mph /  1.6km/h 77% 0.00in /  0mm 0 W/m2
03:34 54.3 °F /  12.4 °C 47.4 °F /  8.6 °C 30.20in /  1022.6hPa Calm   1mph /  1.6km/h 77.6% 0.00in /  0mm 0 W/m2
03:39 54.2 °F /  12.3 °C 47.5 °F /  8.6 °C 30.20in /  1022.6hPa Calm     78% 0.00in /  0mm 0 W/m2
03:44 54.2 °F /  12.3 °C 47.5 °F /  8.6 °C 30.20in /  1022.6hPa Calm     78% 0.00in /  0mm 0 W/m2
03:49 54 °F /  12.2 °C 47.5 °F /  8.6 °C 30.20in /  1022.6hPa Calm     78.7% 0.00in /  0mm 0 W/m2
03:54 53.8 °F /  12.1 °C 47.5 °F /  8.6 °C 30.20in /  1022.6hPa Calm     79% 0.00in /  0mm 0 W/m2
03:59 53.6 °F /  12 °C 47.3 °F /  8.5 °C 30.20in /  1022.6hPa Calm     79% 0.00in /  0mm 0 W/m2
04:00 53.5 °F /  11.9 °C 47.2 °F /  8.4 °C 30.20in /  1022.6hPa Calm     79% 0.00in /  0mm 0 W/m2
04:09 53.3 °F /  11.8 °C 47.3 °F /  8.5 °C 30.20in /  1022.6hPa Calm     80% 0.00in /  0mm 0 W/m2
04:14 53.1 °F /  11.7 °C 47.1 °F /  8.4 °C 30.21in /  1022.9hPa Calm     80% 0.00in /  0mm 0 W/m2
04:19 52.8 °F /  11.6 °C 47.1 °F /  8.4 °C 30.21in /  1022.9hPa Calm     80.9% 0.00in /  0mm 0 W/m2
04:24 52.6 °F /  11.4 °C 46.9 °F /  8.3 °C 30.21in /  1022.9hPa Calm     81% 0.00in /  0mm 0 W/m2
04:29 52.4 °F /  11.3 °C 46.8 °F /  8.2 °C 30.21in /  1022.9hPa Calm     81% 0.00in /  0mm 0 W/m2
04:34 52.3 °F /  11.3 °C 46.6 °F /  8.1 °C 30.21in /  1022.9hPa Calm     81% 0.00in /  0mm 0 W/m2
04:39 52.1 °F /  11.2 °C 46.5 °F /  8.1 °C 30.21in /  1022.9hPa Calm     81.1% 0.00in /  0mm 0 W/m2
04:44 52.1 °F /  11.2 °C 46.8 °F /  8.2 °C 30.21in /  1022.9hPa Calm     82% 0.00in /  0mm 0 W/m2
04:49 52 °F /  11.1 °C 46.7 °F /  8.2 °C 30.21in /  1022.9hPa Calm     82% 0.00in /  0mm 0 W/m2
04:54 52 °F /  11.1 °C 46.7 °F /  8.2 °C 30.22in /  1023.2hPa Calm     82% 0.00in /  0mm 0 W/m2
04:59 51.9 °F /  11.1 °C 46.6 °F /  8.1 °C 30.22in /  1023.2hPa Calm     82% 0.00in /  0mm 0 W/m2
05:04 51.8 °F /  11 °C 46.4 °F /  8 °C 30.22in /  1023.2hPa Calm     82% 0.00in /  0mm 0 W/m2
05:09 51.6 °F /  10.9 °C 46.6 °F /  8.1 °C 30.22in /  1023.2hPa Calm     82.9% 0.00in /  0mm 0 W/m2
05:14 51.5 °F /  10.8 °C 46.5 °F /  8.1 °C 30.22in /  1023.2hPa Calm     83% 0.00in /  0mm 0 W/m2
05:19 51.3 °F /  10.7 °C 46.4 °F /  8 °C 30.22in /  1023.2hPa Calm     83% 0.00in /  0mm 0 W/m2
05:24 51.2 °F /  10.7 °C 46.4 °F /  8 °C 30.22in /  1023.2hPa Calm     83.6% 0.00in /  0mm 0 W/m2
05:29 51 °F /  10.6 °C 46.4 °F /  8 °C 30.22in /  1023.2hPa Calm     84% 0.00in /  0mm 0 W/m2
05:34 50.9 °F /  10.5 °C 46.2 °F /  7.9 °C 30.22in /  1023.2hPa Calm     84% 0.00in /  0mm 0 W/m2
05:39 50.7 °F /  10.4 °C 46.1 °F /  7.8 °C 30.22in /  1023.2hPa Calm     84.2% 0.00in /  0mm 7 W/m2
05:44 50.6 °F /  10.3 °C 46.3 °F /  7.9 °C 30.22in /  1023.2hPa Calm     85% 0.00in /  0mm 9 W/m2
05:49 50.5 °F /  10.3 °C 46.2 °F /  7.9 °C 30.23in /  1023.6hPa Calm     85% 0.00in /  0mm 12 W/m2
05:54 50.3 °F /  10.2 °C 46.2 °F /  7.9 °C 30.23in /  1023.6hPa Calm     85.7% 0.00in /  0mm 16 W/m2
05:59 50.2 °F /  10.1 °C 46.1 °F /  7.8 °C 30.23in /  1023.6hPa Calm     86% 0.00in /  0mm 19 W/m2
06:04 50.1 °F /  10.1 °C 46 °F /  7.8 °C 30.23in /  1023.6hPa Calm     86% 0.00in /  0mm 21 W/m2
06:09 50 °F /  10 °C 46.2 °F /  7.9 °C 30.23in /  1023.6hPa Calm     86.8% 0.00in /  0mm 25 W/m2
06:14 50 °F /  10 °C 46.3 °F /  7.9 °C 30.23in /  1023.6hPa Calm     87% 0.00in /  0mm 32 W/m2
06:19 50.1 °F /  10.1 °C 46.4 °F /  8 °C 30.24in /  1023.9hPa Calm     87% 0.00in /  0mm 37 W/m2
06:24 50.2 °F /  10.1 °C 46.7 °F /  8.2 °C 30.24in /  1023.9hPa Calm     87.8% 0.00in /  0mm 44 W/m2
06:29 50.4 °F /  10.2 °C 47 °F /  8.3 °C 30.24in /  1023.9hPa Calm     88% 0.00in /  0mm 56 W/m2
06:34 50.8 °F /  10.4 °C 47.4 °F /  8.6 °C 30.24in /  1023.9hPa Calm     88.1% 0.00in /  0mm 69 W/m2
06:39 51.3 °F /  10.7 °C 48.2 °F /  9 °C 30.24in /  1023.9hPa Calm     89% 0.00in /  0mm 76 W/m2
06:44 52 °F /  11.1 °C 48.8 °F /  9.3 °C 30.24in /  1023.9hPa Calm     88.8% 0.00in /  0mm 79 W/m2
06:49 52.8 °F /  11.6 °C 49.2 °F /  9.6 °C 30.24in /  1023.9hPa Calm     87.7% 0.00in /  0mm 118 W/m2
06:54 53.6 °F /  12 °C 49.7 °F /  9.8 °C 30.24in /  1023.9hPa Calm     86.6% 0.00in /  0mm 206 W/m2
06:59 54.5 °F /  12.5 °C 50.4 °F /  10.2 °C 30.25in /  1024.3hPa Calm     85.8% 0.00in /  0mm 209 W/m2
07:04 55.5 °F /  13.1 °C 50.6 °F /  10.3 °C 30.25in /  1024.3hPa Calm     83.3% 0.00in /  0mm 211 W/m2
07:09 56.4 °F /  13.6 °C 50.8 °F /  10.4 °C 30.25in /  1024.3hPa WNW 0.5mph /  0.8km/h 2mph /  3.2km/h 81.4% 0.00in /  0mm 253 W/m2
07:14 57.3 °F /  14.1 °C 51 °F /  10.6 °C 30.25in /  1024.3hPa Calm   2mph /  3.2km/h 79.6% 0.00in /  0mm 278 W/m2
07:19 57.8 °F /  14.3 °C 50.8 °F /  10.4 °C 30.25in /  1024.3hPa WNW 0.1mph /  0.2km/h 2mph /  3.2km/h 77.5% 0.00in /  0mm 295 W/m2
07:24 58.4 °F /  14.7 °C 51.2 °F /  10.7 °C 30.25in /  1024.3hPa Calm   2mph /  3.2km/h 76.7% 0.00in /  0mm 313 W/m2
07:29 58.8 °F /  14.9 °C 51.1 °F /  10.6 °C 30.26in /  1024.6hPa Calm   2mph /  3.2km/h 75.5% 0.00in /  0mm 330 W/m2
07:34 59.3 °F /  15.2 °C 51.4 °F /  10.8 °C 30.26in /  1024.6hPa Calm   2mph /  3.2km/h 75% 0.00in /  0mm 348 W/m2
07:39 59.8 °F /  15.4 °C 51.3 °F /  10.7 °C 30.26in /  1024.6hPa Calm     73.5% 0.00in /  0mm 364 W/m2
07:44 60.3 °F /  15.7 °C 51.6 °F /  10.9 °C 30.26in /  1024.6hPa Calm     73.1% 0.00in /  0mm 381 W/m2
07:49 60.7 °F /  15.9 °C 51.2 °F /  10.7 °C 30.26in /  1024.6hPa Calm     70.8% 0.00in /  0mm 399 W/m2
07:54 61.3 °F /  16.3 °C 51.6 °F /  10.9 °C 30.26in /  1024.6hPa Calm     70.4% 0.00in /  0mm 417 W/m2
07:59 61.6 °F /  16.4 °C 50.9 °F /  10.5 °C 30.26in /  1024.6hPa Calm     67.8% 0.00in /  0mm 432 W/m2
08:00 61.9 °F /  16.6 °C 51.2 °F /  10.7 °C 30.26in /  1024.6hPa Calm     68% 0.00in /  0mm 432 W/m2
08:09 62.8 °F /  17.1 °C 51.3 °F /  10.7 °C 30.26in /  1024.6hPa Calm     66.1% 0.00in /  0mm 468 W/m2
08:14 63.1 °F /  17.3 °C 50.9 °F /  10.5 °C 30.26in /  1024.6hPa Calm     64.3% 0.00in /  0mm 489 W/m2
08:19 63.6 °F /  17.6 °C 51.6 °F /  10.9 °C 30.27in /  1024.9hPa Calm     64.9% 0.00in /  0mm 503 W/m2
08:24 64.2 °F /  17.9 °C 52.2 °F /  11.2 °C 30.27in /  1024.9hPa Calm     65.1% 0.00in /  0mm 519 W/m2
08:29 64.5 °F /  18.1 °C 51.7 °F /  10.9 °C 30.26in /  1024.6hPa Calm     63.2% 0.00in /  0mm 536 W/m2
08:34 65 °F /  18.3 °C 53 °F /  11.7 °C 30.27in /  1024.9hPa Calm     65.2% 0.00in /  0mm 554 W/m2
08:39 65.6 °F /  18.7 °C 53 °F /  11.7 °C 30.27in /  1024.9hPa Calm     63.7% 0.00in /  0mm 571 W/m2
08:44 66.1 °F /  18.9 °C 52.4 °F /  11.3 °C 30.26in /  1024.6hPa Calm   1mph /  1.6km/h 61.4% 0.00in /  0mm 585 W/m2
08:49 66.9 °F /  19.4 °C 53.4 °F /  11.9 °C 30.26in /  1024.6hPa Calm   1mph /  1.6km/h 61.9% 0.00in /  0mm 598 W/m2
08:54 67.7 °F /  19.8 °C 52.6 °F /  11.4 °C 30.26in /  1024.6hPa Calm   1mph /  1.6km/h 58.4% 0.00in /  0mm 610 W/m2
08:59 68.4 °F /  20.2 °C 52.9 °F /  11.6 °C 30.26in /  1024.6hPa WNW 0.2mph /  0.3km/h 2mph /  3.2km/h 57.7% 0.00in /  0mm 624 W/m2
09:04 69.1 °F /  20.6 °C 53.3 °F /  11.8 °C 30.26in /  1024.6hPa Calm   2mph /  3.2km/h 57.2% 0.00in /  0mm 636 W/m2
09:09 69.7 °F /  20.9 °C 53.1 °F /  11.7 °C 30.26in /  1024.6hPa WNW 0.1mph /  0.2km/h 2mph /  3.2km/h 55.7% 0.00in /  0mm 652 W/m2
09:14 69.8 °F /  21 °C 53.1 °F /  11.7 °C 30.26in /  1024.6hPa Calm   2mph /  3.2km/h 55.4% 0.00in /  0mm 666 W/m2
09:19 70 °F /  21.1 °C 53 °F /  11.7 °C 30.27in /  1024.9hPa WNW 0.2mph /  0.3km/h 2mph /  3.2km/h 54.8% 0.00in /  0mm 684 W/m2
09:24 70.2 °F /  21.2 °C 52 °F /  11.1 °C 30.26in /  1024.6hPa Calm   2mph /  3.2km/h 52.4% 0.00in /  0mm 696 W/m2
09:29 70.4 °F /  21.3 °C 52.4 °F /  11.3 °C 30.26in /  1024.6hPa NNW 0.7mph /  1.1km/h 3mph /  4.8km/h 52.9% 0.00in /  0mm 705 W/m2
09:34 71 °F /  21.7 °C 52.7 °F /  11.5 °C 30.26in /  1024.6hPa Calm   3mph /  4.8km/h 52.4% 0.00in /  0mm 719 W/m2
09:39 71.6 °F /  22 °C 52.9 °F /  11.6 °C 30.26in /  1024.6hPa NE 0.1mph /  0.2km/h 2mph /  3.2km/h 51.7% 0.00in /  0mm 733 W/m2
09:44 71.9 °F /  22.2 °C 53.3 °F /  11.8 °C 30.26in /  1024.6hPa NE 0.1mph /  0.2km/h 2mph /  3.2km/h 51.8% 0.00in /  0mm 749 W/m2
09:49 72.7 °F /  22.6 °C 53.7 °F /  12.1 °C 30.26in /  1024.6hPa NNE 0.4mph /  0.6km/h 4mph /  6.4km/h 51.4% 0.00in /  0mm 763 W/m2
09:54 73.2 °F /  22.9 °C 53.4 °F /  11.9 °C 30.26in /  1024.6hPa Calm   4mph /  6.4km/h 49.9% 0.00in /  0mm 775 W/m2
09:59 73.7 °F /  23.2 °C 53.5 °F /  11.9 °C 30.26in /  1024.6hPa Calm   4mph /  6.4km/h 49.3% 0.00in /  0mm 786 W/m2
10:04 74.1 °F /  23.4 °C 52.4 °F /  11.3 °C 30.26in /  1024.6hPa Calm   4mph /  6.4km/h 46.8% 0.00in /  0mm 796 W/m2
10:09 74.2 °F /  23.4 °C 52.1 °F /  11.2 °C 30.26in /  1024.6hPa Calm   1mph /  1.6km/h 45.9% 0.00in /  0mm 809 W/m2
10:14 74.6 °F /  23.7 °C 52.8 °F /  11.6 °C 30.26in /  1024.6hPa NNE 0.3mph /  0.5km/h 2mph /  3.2km/h 46.6% 0.00in /  0mm 816 W/m2
10:19 74.9 °F /  23.8 °C 52.2 °F /  11.2 °C 30.26in /  1024.6hPa NE 0.7mph /  1.1km/h 4mph /  6.4km/h 45.1% 0.00in /  0mm 828 W/m2
10:24 75.4 °F /  24.1 °C 52.2 °F /  11.2 °C 30.26in /  1024.6hPa ENE 1.5mph /  2.4km/h 4mph /  6.4km/h 44.4% 0.00in /  0mm 840 W/m2
10:29 76 °F /  24.4 °C 50.9 °F /  10.5 °C 30.26in /  1024.6hPa ENE 0.1mph /  0.2km/h 4mph /  6.4km/h 41.4% 0.00in /  0mm 846 W/m2
10:34 75.7 °F /  24.3 °C 52.3 °F /  11.3 °C 30.26in /  1024.6hPa NE 0.3mph /  0.5km/h 4mph /  6.4km/h 43.9% 0.00in /  0mm 853 W/m2
10:39 75.9 °F /  24.4 °C 51.7 °F /  10.9 °C 30.26in /  1024.6hPa Calm   3mph /  4.8km/h 42.8% 0.00in /  0mm 863 W/m2
10:44 76.2 °F /  24.6 °C 51.8 °F /  11 °C 30.26in /  1024.6hPa Calm   3mph /  4.8km/h 42.5% 0.00in /  0mm 870 W/m2
10:49 76.5 °F /  24.7 °C 52 °F /  11.1 °C 30.26in /  1024.6hPa Calm   3mph /  4.8km/h 42.5% 0.00in /  0mm 879 W/m2
10:54 76.8 °F /  24.9 °C 52.3 °F /  11.3 °C 30.26in /  1024.6hPa NE 0.8mph /  1.3km/h 3mph /  4.8km/h 42.6% 0.00in /  0mm 886 W/m2
10:59 77.4 °F /  25.2 °C 51.3 °F /  10.7 °C 30.26in /  1024.6hPa Calm   3mph /  4.8km/h 40.2% 0.00in /  0mm 896 W/m2
11:04 77.6 °F /  25.3 °C 50.7 °F /  10.4 °C 30.25in /  1024.3hPa Calm   3mph /  4.8km/h 39% 0.00in /  0mm 902 W/m2
11:09 77.6 °F /  25.3 °C 50.7 °F /  10.4 °C 30.25in /  1024.3hPa NE 0.1mph /  0.2km/h 2mph /  3.2km/h 39% 0.00in /  0mm 909 W/m2
11:14 77.7 °F /  25.4 °C 49.9 °F /  9.9 °C 30.25in /  1024.3hPa NE 0.2mph /  0.3km/h 3mph /  4.8km/h 37.8% 0.00in /  0mm 928 W/m2
11:19 77.5 °F /  25.3 °C 49.9 °F /  9.9 °C 30.25in /  1024.3hPa ENE 0.7mph /  1.1km/h 5mph /  8km/h 38% 0.00in /  0mm 935 W/m2
11:24 77.5 °F /  25.3 °C 48.3 °F /  9.1 °C 30.25in /  1024.3hPa Calm   5mph /  8km/h 35.7% 0.00in /  0mm 940 W/m2
11:29 77.3 °F /  25.2 °C 48.6 °F /  9.2 °C 30.25in /  1024.3hPa Calm   5mph /  8km/h 36.5% 0.00in /  0mm 944 W/m2
11:34 77.1 °F /  25.1 °C 48.8 °F /  9.3 °C 30.25in /  1024.3hPa Calm   5mph /  8km/h 37% 0.00in /  0mm 949 W/m2
11:39 76.9 °F /  24.9 °C 48.9 °F /  9.4 °C 30.24in /  1023.9hPa NE 0.3mph /  0.5km/h 4mph /  6.4km/h 37.3% 0.00in /  0mm 951 W/m2
11:44 77.5 °F /  25.3 °C 50.2 °F /  10.1 °C 30.24in /  1023.9hPa NE 0.5mph /  0.8km/h 4mph /  6.4km/h 38.6% 0.00in /  0mm 954 W/m2
11:49 78 °F /  25.6 °C 48.7 °F /  9.3 °C 30.24in /  1023.9hPa Calm   4mph /  6.4km/h 35.7% 0.00in /  0mm 963 W/m2
11:54 78.2 °F /  25.7 °C 49.8 °F /  9.9 °C 30.24in /  1023.9hPa NE 0.4mph /  0.6km/h 4mph /  6.4km/h 37% 0.00in /  0mm 965 W/m2
11:59 78.4 °F /  25.8 °C 50.3 °F /  10.2 °C 30.24in /  1023.9hPa NE 0.2mph /  0.3km/h 4mph /  6.4km/h 37.4% 0.00in /  0mm 967 W/m2
12:00 78.6 °F /  25.9 °C 49.4 °F /  9.7 °C 30.24in /  1023.9hPa Calm   4mph /  6.4km/h 36% 0.00in /  0mm 967 W/m2
12:09 78.5 °F /  25.8 °C 50.3 °F /  10.2 °C 30.24in /  1023.9hPa ENE 1.5mph /  2.4km/h 6mph /  9.7km/h 37.3% 0.00in /  0mm 974 W/m2
12:14 78.7 °F /  25.9 °C 49.1 °F /  9.5 °C 30.24in /  1023.9hPa ENE 0.6mph /  1km/h 6mph /  9.7km/h 35.4% 0.00in /  0mm 976 W/m2
12:19 78.6 °F /  25.9 °C 48.3 °F /  9.1 °C 30.23in /  1023.6hPa ENE 0.2mph /  0.3km/h 6mph /  9.7km/h 34.6% 0.00in /  0mm 979 W/m2
12:24 78.4 °F /  25.8 °C 48.8 °F /  9.3 °C 30.23in /  1023.6hPa ENE 0.3mph /  0.5km/h 6mph /  9.7km/h 35.4% 0.00in /  0mm 979 W/m2
12:29 78 °F /  25.6 °C 48.1 °F /  8.9 °C 30.23in /  1023.6hPa ENE 1.5mph /  2.4km/h 6mph /  9.7km/h 35% 0.00in /  0mm 990 W/m2
12:34 78 °F /  25.6 °C 48.6 °F /  9.2 °C 30.23in /  1023.6hPa NE 1.3mph /  2.1km/h 6mph /  9.7km/h 35.5% 0.00in /  0mm 990 W/m2
12:39 78.3 °F /  25.7 °C 48.8 °F /  9.3 °C 30.22in /  1023.2hPa NE 1.4mph /  2.3km/h 7mph /  11.3km/h 35.5% 0.00in /  0mm 993 W/m2
12:44 78.3 °F /  25.7 °C 47.8 °F /  8.8 °C 30.22in /  1023.2hPa ENE 1.2mph /  1.9km/h 7mph /  11.3km/h 34.2% 0.00in /  0mm 997 W/m2
12:49 78.2 °F /  25.7 °C 48.3 °F /  9.1 °C 30.22in /  1023.2hPa NE 0.9mph /  1.4km/h 7mph /  11.3km/h 34.9% 0.00in /  0mm 998 W/m2
12:54 78 °F /  25.6 °C 48.5 °F /  9.2 °C 30.22in /  1023.2hPa East 1.2mph /  1.9km/h 7mph /  11.3km/h 35.5% 0.00in /  0mm 995 W/m2
12:59 78.2 °F /  25.7 °C 49.4 °F /  9.7 °C 30.22in /  1023.2hPa East 0.3mph /  0.5km/h 7mph /  11.3km/h 36.5% 0.00in /  0mm 993 W/m2
13:04 78.2 °F /  25.7 °C 47.9 °F /  8.8 °C 30.22in /  1023.2hPa Calm   7mph /  11.3km/h 34.6% 0.00in /  0mm 997 W/m2
13:09 77.9 °F /  25.5 °C 46.2 °F /  7.9 °C 30.22in /  1023.2hPa Calm   1mph /  1.6km/h 32.5% 0.00in /  0mm 993 W/m2
13:14 77.4 °F /  25.2 °C 46.8 °F /  8.2 °C 30.22in /  1023.2hPa East 0.1mph /  0.2km/h 1mph /  1.6km/h 33.9% 0.00in /  0mm 993 W/m2
13:19 77.4 °F /  25.2 °C 49.1 °F /  9.5 °C 30.22in /  1023.2hPa East 0.5mph /  0.8km/h 3mph /  4.8km/h 37% 0.00in /  0mm 995 W/m2
13:24 77.9 °F /  25.5 °C 49.1 °F /  9.5 °C 30.22in /  1023.2hPa NE 0.7mph /  1.1km/h 5mph /  8km/h 36.4% 0.00in /  0mm 995 W/m2
13:29 78.2 °F /  25.7 °C 48.5 °F /  9.2 °C 30.22in /  1023.2hPa North 1.8mph /  2.9km/h 5mph /  8km/h 35.3% 0.00in /  0mm 1002 W/m2
13:34 78.2 °F /  25.7 °C 47.7 °F /  8.7 °C 30.22in /  1023.2hPa North 1mph /  1.6km/h 5mph /  8km/h 34.2% 0.00in /  0mm 1004 W/m2
13:39 78.4 °F /  25.8 °C 46.1 °F /  7.8 °C 30.21in /  1022.9hPa NNW 0.2mph /  0.3km/h 4mph /  6.4km/h 32% 0.00in /  0mm 1025 W/m2
13:44 78.5 °F /  25.8 °C 48 °F /  8.9 °C 30.21in /  1022.9hPa NW 1.6mph /  2.6km/h 9mph /  14.5km/h 34.2% 0.00in /  0mm 1039 W/m2
13:49 78.8 °F /  26 °C 47.7 °F /  8.7 °C 30.21in /  1022.9hPa WNW 1.4mph /  2.3km/h 9mph /  14.5km/h 33.5% 0.00in /  0mm 1069 W/m2
13:54 79.2 °F /  26.2 °C 49.5 °F /  9.7 °C 30.21in /  1022.9hPa WNW 0.5mph /  0.8km/h 9mph /  14.5km/h 35.4% 0.00in /  0mm 1130 W/m2
13:59 79.6 °F /  26.4 °C 46.9 °F /  8.3 °C 30.21in /  1022.9hPa WNW 1mph /  1.6km/h 9mph /  14.5km/h 31.7% 0.00in /  0mm 1136 W/m2
14:04 79.4 °F /  26.3 °C 46.1 °F /  7.8 °C 30.21in /  1022.9hPa NW 0.3mph /  0.5km/h 9mph /  14.5km/h 30.9% 0.00in /  0mm 944 W/m2
14:09 78.8 °F /  26 °C 44.9 °F /  7.2 °C 30.21in /  1022.9hPa NW 0.1mph /  0.2km/h 2mph /  3.2km/h 30.1% 0.00in /  0mm 752 W/m2
14:14 78.4 °F /  25.8 °C 46.6 °F /  8.1 °C 30.21in /  1022.9hPa Calm   2mph /  3.2km/h 32.6% 0.00in /  0mm 589 W/m2
14:19 78.2 °F /  25.7 °C 47.6 °F /  8.7 °C 30.21in /  1022.9hPa Calm   2mph /  3.2km/h 34.1% 0.00in /  0mm 392 W/m2
14:24 78.2 °F /  25.7 °C 48.5 °F /  9.2 °C 30.21in /  1022.9hPa NW 0.2mph /  0.3km/h 3mph /  4.8km/h 35.3% 0.00in /  0mm 378 W/m2
14:29 78.1 °F /  25.6 °C 48 °F /  8.9 °C 30.21in /  1022.9hPa NW 1mph /  1.6km/h 5mph /  8km/h 34.7% 0.00in /  0mm 339 W/m2
14:34 77.8 °F /  25.4 °C 49 °F /  9.4 °C 30.21in /  1022.9hPa NW 0.1mph /  0.2km/h 5mph /  8km/h 36.3% 0.00in /  0mm 327 W/m2
14:39 77.4 °F /  25.2 °C 48.5 °F /  9.2 °C 30.21in /  1022.9hPa NW 0.6mph /  1km/h 4mph /  6.4km/h 36.1% 0.00in /  0mm 264 W/m2
14:44 76.9 °F /  24.9 °C 47.7 °F /  8.7 °C 30.21in /  1022.9hPa WNW 1.7mph /  2.7km/h 6mph /  9.7km/h 35.7% 0.00in /  0mm 209 W/m2
14:49 76.4 °F /  24.7 °C 48.1 °F /  8.9 °C 30.20in /  1022.6hPa WNW 1mph /  1.6km/h 6mph /  9.7km/h 36.8% 0.00in /  0mm 202 W/m2
14:54 76 °F /  24.4 °C 48.1 °F /  8.9 °C 30.20in /  1022.6hPa Calm   6mph /  9.7km/h 37.2% 0.00in /  0mm 181 W/m2
14:59 75.7 °F /  24.3 °C 48.4 °F /  9.1 °C 30.20in /  1022.6hPa Calm   6mph /  9.7km/h 38.1% 0.00in /  0mm 162 W/m2
15:04 75.5 °F /  24.2 °C 49.1 °F /  9.5 °C 30.20in /  1022.6hPa Calm   6mph /  9.7km/h 39.3% 0.00in /  0mm 179 W/m2
15:09 75.3 °F /  24.1 °C 50 °F /  10 °C 30.19in /  1022.2hPa Calm     41% 0.00in /  0mm 188 W/m2
15:14 75.2 °F /  24 °C 51.5 °F /  10.8 °C 30.19in /  1022.2hPa Calm     43.6% 0.00in /  0mm 193 W/m2
15:19 75 °F /  23.9 °C 51.3 °F /  10.7 °C 30.19in /  1022.2hPa Calm     43.4% 0.00in /  0mm 190 W/m2
15:24 74.9 °F /  23.8 °C 50.3 °F /  10.2 °C 30.19in /  1022.2hPa Calm   1mph /  1.6km/h 42.1% 0.00in /  0mm 223 W/m2
15:29 74.8 °F /  23.8 °C 50.2 °F /  10.1 °C 30.19in /  1022.2hPa WNW 0.2mph /  0.3km/h 4mph /  6.4km/h 42% 0.00in /  0mm 294 W/m2
15:34 74.6 °F /  23.7 °C 50.4 °F /  10.2 °C 30.19in /  1022.2hPa WNW 0.2mph /  0.3km/h 4mph /  6.4km/h 42.6% 0.00in /  0mm 283 W/m2
15:39 74.5 °F /  23.6 °C 50 °F /  10 °C 30.19in /  1022.2hPa WNW 0.1mph /  0.2km/h 4mph /  6.4km/h 42.1% 0.00in /  0mm 241 W/m2
15:44 74.3 °F /  23.5 °C 49.5 °F /  9.7 °C 30.19in /  1022.2hPa WNW 0.5mph /  0.8km/h 4mph /  6.4km/h 41.6% 0.00in /  0mm 148 W/m2
15:49 74.2 °F /  23.4 °C 49.5 °F /  9.7 °C 30.19in /  1022.2hPa Calm   4mph /  6.4km/h 41.9% 0.00in /  0mm 130 W/m2
15:54 74 °F /  23.3 °C 49.8 °F /  9.9 °C 30.19in /  1022.2hPa WNW 1.6mph /  2.6km/h 10mph /  16.1km/h 42.5% 0.00in /  0mm 132 W/m2
15:59 73.7 °F /  23.2 °C 50 °F /  10 °C 30.19in /  1022.2hPa WNW 0.5mph /  0.8km/h 10mph /  16.1km/h 43.2% 0.00in /  0mm 156 W/m2
16:09 73.3 °F /  22.9 °C 50.5 °F /  10.3 °C 30.19in /  1022.2hPa West 0.2mph /  0.3km/h 2mph /  3.2km/h 44.7% 0.00in /  0mm 195 W/m2
16:14 73.3 °F /  22.9 °C 51.4 °F /  10.8 °C 30.19in /  1022.2hPa West 0.4mph /  0.6km/h 3mph /  4.8km/h 46.2% 0.00in /  0mm 204 W/m2
16:19 73.2 °F /  22.9 °C 51.2 °F /  10.7 °C 30.19in /  1022.2hPa West 1.2mph /  1.9km/h 4mph /  6.4km/h 45.9% 0.00in /  0mm 204 W/m2
16:24 73.2 °F /  22.9 °C 51.4 °F /  10.8 °C 30.19in /  1022.2hPa West 0.4mph /  0.6km/h 4mph /  6.4km/h 46.4% 0.00in /  0mm 199 W/m2
16:29 73.4 °F /  23 °C 52.6 °F /  11.4 °C 30.19in /  1022.2hPa West 0.1mph /  0.2km/h 4mph /  6.4km/h 48% 0.00in /  0mm 190 W/m2
16:34 73.6 °F /  23.1 °C 52 °F /  11.1 °C 30.19in /  1022.2hPa Calm   4mph /  6.4km/h 46.7% 0.00in /  0mm 190 W/m2
16:39 73.9 °F /  23.3 °C 51.2 °F /  10.7 °C 30.19in /  1022.2hPa Calm   1mph /  1.6km/h 45% 0.00in /  0mm 176 W/m2
16:44 74.2 °F /  23.4 °C 52.1 °F /  11.2 °C 30.19in /  1022.2hPa Calm   1mph /  1.6km/h 45.9% 0.00in /  0mm 156 W/m2
16:49 74.4 °F /  23.6 °C 51.7 °F /  10.9 °C 30.19in /  1022.2hPa Calm   1mph /  1.6km/h 45% 0.00in /  0mm 144 W/m2
16:54 74.5 °F /  23.6 °C 51.2 °F /  10.7 °C 30.19in /  1022.2hPa Calm   1mph /  1.6km/h 44% 0.00in /  0mm 135 W/m2
16:59 74.6 °F /  23.7 °C 50.7 °F /  10.4 °C 30.19in /  1022.2hPa Calm   1mph /  1.6km/h 43% 0.00in /  0mm 132 W/m2
17:04 74.6 °F /  23.7 °C 49.4 °F /  9.7 °C 30.19in /  1022.2hPa Calm   3mph /  4.8km/h 41.1% 0.00in /  0mm 146 W/m2
17:09 74.6 °F /  23.7 °C 49.5 °F /  9.7 °C 30.19in /  1022.2hPa West 0.3mph /  0.5km/h 3mph /  4.8km/h 41.1% 0.00in /  0mm 153 W/m2
17:14 74.6 °F /  23.7 °C 49.4 °F /  9.7 °C 30.19in /  1022.2hPa Calm   3mph /  4.8km/h 41% 0.00in /  0mm 142 W/m2
17:19 74.7 °F /  23.7 °C 50.9 °F /  10.5 °C 30.19in /  1022.2hPa West 0.1mph /  0.2km/h 3mph /  4.8km/h 43.2% 0.00in /  0mm 102 W/m2
17:24 74.6 °F /  23.7 °C 50.5 °F /  10.3 °C 30.19in /  1022.2hPa West 0.6mph /  1km/h 4mph /  6.4km/h 42.7% 0.00in /  0mm 74 W/m2
17:29 74.3 °F /  23.5 °C 50.1 °F /  10.1 °C 30.19in /  1022.2hPa West 0.1mph /  0.2km/h 4mph /  6.4km/h 42.5% 0.00in /  0mm 67 W/m2
17:34 74 °F /  23.3 °C 50.7 °F /  10.4 °C 30.19in /  1022.2hPa West 0.4mph /  0.6km/h 4mph /  6.4km/h 44% 0.00in /  0mm 74 W/m2
17:39 73.5 °F /  23.1 °C 50.5 °F /  10.3 °C 30.19in /  1022.2hPa WSW 1.2mph /  1.9km/h 6mph /  9.7km/h 44.3% 0.00in /  0mm 79 W/m2
17:44 72.9 °F /  22.7 °C 50.4 °F /  10.2 °C 30.19in /  1022.2hPa SW 0.4mph /  0.6km/h 6mph /  9.7km/h 45.1% 0.00in /  0mm 79 W/m2
17:49 72.4 °F /  22.4 °C 49.8 °F /  9.9 °C 30.19in /  1022.2hPa West 0.3mph /  0.5km/h 6mph /  9.7km/h 44.9% 0.00in /  0mm 81 W/m2
17:54 72 °F /  22.2 °C 49.6 °F /  9.8 °C 30.19in /  1022.2hPa WSW 0.8mph /  1.3km/h 7mph /  11.3km/h 45.1% 0.00in /  0mm 74 W/m2
17:59 71.5 °F /  21.9 °C 49.3 °F /  9.6 °C 30.19in /  1022.2hPa WSW 2mph /  3.2km/h 9mph /  14.5km/h 45.4% 0.00in /  0mm 65 W/m2
18:04 71.1 °F /  21.7 °C 48.9 °F /  9.4 °C 30.19in /  1022.2hPa WSW 0.3mph /  0.5km/h 9mph /  14.5km/h 45.4% 0.00in /  0mm 69 W/m2
18:09 70.8 °F /  21.6 °C 49.4 °F /  9.7 °C 30.19in /  1022.2hPa Calm   5mph /  8km/h 46.7% 0.00in /  0mm 84 W/m2
18:14 70.5 °F /  21.4 °C 50.4 °F /  10.2 °C 30.19in /  1022.2hPa WSW 0.1mph /  0.2km/h 5mph /  8km/h 48.9% 0.00in /  0mm 86 W/m2
18:19 70.4 °F /  21.3 °C 50.8 °F /  10.4 °C 30.19in /  1022.2hPa WSW 0.3mph /  0.5km/h 5mph /  8km/h 50% 0.00in /  0mm 86 W/m2
18:24 70.2 °F /  21.2 °C 50.6 °F /  10.3 °C 30.19in /  1022.2hPa WSW 1.7mph /  2.7km/h 7mph /  11.3km/h 49.8% 0.00in /  0mm 72 W/m2
18:29 70.1 °F /  21.2 °C 50.7 °F /  10.4 °C 30.19in /  1022.2hPa WSW 0.1mph /  0.2km/h 7mph /  11.3km/h 50.1% 0.00in /  0mm 74 W/m2
18:34 70.1 °F /  21.2 °C 50.6 °F /  10.3 °C 30.19in /  1022.2hPa WSW 0.5mph /  0.8km/h 7mph /  11.3km/h 49.9% 0.00in /  0mm 70 W/m2
18:39 70.2 °F /  21.2 °C 49.5 °F /  9.7 °C 30.20in /  1022.6hPa WSW 1mph /  1.6km/h 7mph /  11.3km/h 47.8% 0.00in /  0mm 65 W/m2
18:44 70.2 °F /  21.2 °C 49.4 °F /  9.7 °C 30.20in /  1022.6hPa WSW 0.3mph /  0.5km/h 7mph /  11.3km/h 47.6% 0.00in /  0mm 72 W/m2
18:49 70.3 °F /  21.3 °C 49.4 °F /  9.7 °C 30.20in /  1022.6hPa Calm   7mph /  11.3km/h 47.5% 0.00in /  0mm 72 W/m2
18:54 70.3 °F /  21.3 °C 48.9 °F /  9.4 °C 30.20in /  1022.6hPa WSW 0.1mph /  0.2km/h 7mph /  11.3km/h 46.7% 0.00in /  0mm 70 W/m2
18:59 70.2 °F /  21.2 °C 48.8 °F /  9.3 °C 30.20in /  1022.6hPa WSW 0.2mph /  0.3km/h 7mph /  11.3km/h 46.5% 0.00in /  0mm 51 W/m2
19:04 70.1 °F /  21.2 °C 49 °F /  9.4 °C 30.20in /  1022.6hPa WSW 0.6mph /  1km/h 7mph /  11.3km/h 47% 0.00in /  0mm 53 W/m2
19:09 69.9 °F /  21.1 °C 49.2 °F /  9.6 °C 30.20in /  1022.6hPa Calm   7mph /  11.3km/h 47.8% 0.00in /  0mm 58 W/m2
19:14 69.8 °F /  21 °C 49.5 °F /  9.7 °C 30.21in /  1022.9hPa Calm   7mph /  11.3km/h 48.5% 0.00in /  0mm 58 W/m2
19:19 69.7 °F /  20.9 °C 49.2 °F /  9.6 °C 30.21in /  1022.9hPa Calm   7mph /  11.3km/h 48.2% 0.00in /  0mm 44 W/m2
19:24 69.5 °F /  20.8 °C 49.4 °F /  9.7 °C 30.21in /  1022.9hPa Calm   7mph /  11.3km/h 48.6% 0.00in /  0mm 26 W/m2
19:29 69.4 °F /  20.8 °C 49.2 °F /  9.6 °C 30.21in /  1022.9hPa Calm   7mph /  11.3km/h 48.6% 0.00in /  0mm 32 W/m2
19:34 69.3 °F /  20.7 °C 49.5 °F /  9.7 °C 30.21in /  1022.9hPa Calm   7mph /  11.3km/h 49.4% 0.00in /  0mm 40 W/m2
19:39 69.2 °F /  20.7 °C 51.3 °F /  10.7 °C 30.21in /  1022.9hPa Calm     52.9% 0.00in /  0mm 40 W/m2
19:44 69 °F /  20.6 °C 52.7 °F /  11.5 °C 30.21in /  1022.9hPa WSW 0.1mph /  0.2km/h 2mph /  3.2km/h 56.1% 0.00in /  0mm 39 W/m2
19:49 68.6 °F /  20.3 °C 53.3 °F /  11.8 °C 30.21in /  1022.9hPa Calm   2mph /  3.2km/h 58.2% 0.00in /  0mm 19 W/m2
19:54 68.1 °F /  20.1 °C 53.8 °F /  12.1 °C 30.22in /  1023.2hPa Calm   2mph /  3.2km/h 60.2% 0.00in /  0mm 12 W/m2
19:59 67.7 °F /  19.8 °C 54.1 °F /  12.3 °C 30.22in /  1023.2hPa Calm   2mph /  3.2km/h 61.8% 0.00in /  0mm 11 W/m2
20:04 66.8 °F /  19.3 °C 52.9 °F /  11.6 °C 30.22in /  1023.2hPa Calm     61% 0.00in /  0mm 0 W/m2
20:09 66.5 °F /  19.2 °C 52 °F /  11.1 °C 30.23in /  1023.6hPa Calm     59.5% 0.00in /  0mm 0 W/m2
20:14 66.1 °F /  18.9 °C 51.9 °F /  11.1 °C 30.23in /  1023.6hPa Calm     60% 0.00in /  0mm 0 W/m2
20:19 65.9 °F /  18.8 °C 52.4 °F /  11.3 °C 30.23in /  1023.6hPa Calm     61.7% 0.00in /  0mm 0 W/m2
20:24 65.7 °F /  18.7 °C 51.7 °F /  10.9 °C 30.22in /  1023.2hPa Calm     60.5% 0.00in /  0mm 0 W/m2
20:29 65.6 °F /  18.7 °C 51.6 °F /  10.9 °C 30.22in /  1023.2hPa Calm     60.5% 0.00in /  0mm 0 W/m2
20:34 65.4 °F /  18.6 °C 50.8 °F /  10.4 °C 30.23in /  1023.6hPa Calm     59.2% 0.00in /  0mm 0 W/m2
20:39 65.2 °F /  18.4 °C 50.5 °F /  10.3 °C 30.23in /  1023.6hPa Calm     58.9% 0.00in /  0mm 0 W/m2
20:44 65.1 °F /  18.4 °C 51.2 °F /  10.7 °C 30.23in /  1023.6hPa Calm     60.6% 0.00in /  0mm 0 W/m2
20:49 65 °F /  18.3 °C 51.3 °F /  10.7 °C 30.23in /  1023.6hPa Calm     61.1% 0.00in /  0mm 0 W/m2
20:54 64.9 °F /  18.3 °C 51.2 °F /  10.7 °C 30.23in /  1023.6hPa Calm     61.2% 0.00in /  0mm 0 W/m2
20:59 64.7 °F /  18.2 °C 51.8 °F /  11 °C 30.23in /  1023.6hPa Calm     62.8% 0.00in /  0mm 0 W/m2
21:04 64.5 °F /  18.1 °C 52.1 °F /  11.2 °C 30.23in /  1023.6hPa Calm     64% 0.00in /  0mm 0 W/m2
21:09 64.3 °F /  17.9 °C 51.9 °F /  11.1 °C 30.23in /  1023.6hPa Calm     64% 0.00in /  0mm 0 W/m2
21:14 64.1 °F /  17.8 °C 51.7 °F /  10.9 °C 30.23in /  1023.6hPa Calm     64.1% 0.00in /  0mm 0 W/m2
21:19 63.9 °F /  17.7 °C 52.4 °F /  11.3 °C 30.24in /  1023.9hPa Calm     66.3% 0.00in /  0mm 0 W/m2
21:24 63.5 °F /  17.5 °C 52.4 °F /  11.3 °C 30.24in /  1023.9hPa Calm     67% 0.00in /  0mm 0 W/m2
21:29 63.2 °F /  17.3 °C 52 °F /  11.1 °C 30.24in /  1023.9hPa Calm     66.7% 0.00in /  0mm 0 W/m2
21:34 63 °F /  17.2 °C 51.7 °F /  10.9 °C 30.24in /  1023.9hPa Calm     66.7% 0.00in /  0mm 0 W/m2
21:39 62.7 °F /  17.1 °C 51.6 °F /  10.9 °C 30.24in /  1023.9hPa Calm     67% 0.00in /  0mm 0 W/m2
21:44 62.4 °F /  16.9 °C 51.4 °F /  10.8 °C 30.24in /  1023.9hPa Calm     67.2% 0.00in /  0mm 0 W/m2
21:49 62.2 °F /  16.8 °C 51.5 °F /  10.8 °C 30.24in /  1023.9hPa Calm     68% 0.00in /  0mm 0 W/m2
21:54 61.9 °F /  16.6 °C 51.2 °F /  10.7 °C 30.24in /  1023.9hPa Calm     67.8% 0.00in /  0mm 0 W/m2
21:59 61.7 °F /  16.5 °C 50.4 °F /  10.2 °C 30.24in /  1023.9hPa Calm     66.5% 0.00in /  0mm 0 W/m2
22:04 61.5 °F /  16.4 °C 50.4 °F /  10.2 °C 30.24in /  1023.9hPa Calm     66.9% 0.00in /  0mm 0 W/m2
22:09 61.4 °F /  16.3 °C 50.3 °F /  10.2 °C 30.24in /  1023.9hPa Calm     66.9% 0.00in /  0mm 0 W/m2
22:14 61.3 °F /  16.3 °C 50.2 °F /  10.1 °C 30.24in /  1023.9hPa Calm     66.8% 0.00in /  0mm 0 W/m2
22:19 61.2 °F /  16.2 °C 50.8 °F /  10.4 °C 30.24in /  1023.9hPa Calm     68.6% 0.00in /  0mm 0 W/m2
22:24 60.9 °F /  16.1 °C 50.7 °F /  10.4 °C 30.24in /  1023.9hPa Calm     69% 0.00in /  0mm 0 W/m2
22:29 60.6 °F /  15.9 °C 50.7 °F /  10.4 °C 30.24in /  1023.9hPa Calm     69.7% 0.00in /  0mm 0 W/m2
22:34 60.4 °F /  15.8 °C 50.6 °F /  10.3 °C 30.24in /  1023.9hPa Calm     70% 0.00in /  0mm 0 W/m2
22:39 60.1 °F /  15.6 °C 50.5 °F /  10.3 °C 30.24in /  1023.9hPa Calm     70.5% 0.00in /  0mm 0 W/m2
22:44 59.9 °F /  15.5 °C 50.5 °F /  10.3 °C 30.24in /  1023.9hPa Calm     71% 0.00in /  0mm 0 W/m2
22:49 59.7 °F /  15.4 °C 50.3 °F /  10.2 °C 30.24in /  1023.9hPa Calm     71% 0.00in /  0mm 0 W/m2
22:54 59.6 °F /  15.3 °C 50.4 °F /  10.2 °C 30.24in /  1023.9hPa Calm     71.6% 0.00in /  0mm 0 W/m2
22:59 59.4 °F /  15.2 °C 50.4 °F /  10.2 °C 30.24in /  1023.9hPa Calm     72% 0.00in /  0mm 0 W/m2
23:04 59.3 °F /  15.2 °C 50.4 °F /  10.2 °C 30.24in /  1023.9hPa Calm     72.2% 0.00in /  0mm 0 W/m2
23:09 59.3 °F /  15.2 °C 50.7 °F /  10.4 °C 30.24in /  1023.9hPa Calm     73.2% 0.00in /  0mm 0 W/m2
23:14 59.1 °F /  15.1 °C 50.8 °F /  10.4 °C 30.24in /  1023.9hPa Calm     74% 0.00in /  0mm 0 W/m2
23:19 58.8 °F /  14.9 °C 50.5 °F /  10.3 °C 30.24in /  1023.9hPa Calm     74% 0.00in /  0mm 0 W/m2
23:24 58.5 °F /  14.7 °C 50.2 °F /  10.1 °C 30.24in /  1023.9hPa Calm     74% 0.00in /  0mm 0 W/m2
23:29 58.1 °F /  14.5 °C 50.1 °F /  10.1 °C 30.24in /  1023.9hPa Calm     74.5% 0.00in /  0mm 0 W/m2
23:34 58 °F /  14.4 °C 50.1 °F /  10.1 °C 30.24in /  1023.9hPa Calm     75% 0.00in /  0mm 0 W/m2
23:39 57.8 °F /  14.3 °C 49.9 °F /  9.9 °C 30.24in /  1023.9hPa Calm     75% 0.00in /  0mm 0 W/m2
23:44 57.7 °F /  14.3 °C 49.8 °F /  9.9 °C 30.24in /  1023.9hPa Calm     75% 0.00in /  0mm 0 W/m2
23:49 57.6 °F /  14.2 °C 49.7 °F /  9.8 °C 30.24in /  1023.9hPa Calm     75% 0.00in /  0mm 0 W/m2
23:54 57.5 °F /  14.2 °C 49.6 °F /  9.8 °C 30.24in /  1023.9hPa Calm     75% 0.00in /  0mm 0 W/m2
23:59 57.4 °F /  14.1 °C 49.8 °F /  9.9 °C 30.24in /  1023.9hPa Calm     75.7% 0.00in /  0mm 0 W/m2
Hartford County Weather
Compliments of Weather Underground - 2 mb